Time;durP1;ratioP1;P1;durP2;ratioP2;P2;SDS_P1;SDS_P2;PMS_P1;PMS_P2;Temp;Humidity;BMP_temperature;BMP_pressure;BME280_temperature;BME280_humidity;BME280_pressure;Samples;Min_cycle;Max_cycle;Signal;HPM_P1;HPM_P2
2022/09/03 00:02:02;;;;;;;1999.90;999.90;;;;;;;-144.65;100.00;64500.88;5115389;28;20020;-76
2022/09/03 00:04:44;;;;;;;1999.90;999.90;;;;;;;-144.65;100.00;64500.88;5097972;28;20081;-76
2022/09/03 00:07:47;;;;;;;1999.90;999.90;;;;;;;-144.65;100.00;64500.88;5093593;28;20043;-76
2022/09/03 00:10:24;;;;;;;1999.90;999.90;;;;;;;-144.65;100.00;64500.88;5074684;28;20043;-76
2022/09/03 00:12:53;;;;;;;1999.90;999.90;;;;;;;-144.65;100.00;64500.88;5092942;28;20024;-76
2022/09/03 00:15:21;;;;;;;1999.90;999.90;;;;;;;-144.65;100.00;64500.88;5093297;28;20024;-75
2022/09/03 00:17:57;;;;;;;1999.90;999.90;;;;;;;-144.65;100.00;64500.88;5093000;28;20032;-76
2022/09/03 00:20:30;;;;;;;1999.90;999.90;;;;;;;-144.65;100.00;64500.88;5092861;28;20031;-75
2022/09/03 00:22:59;;;;;;;1999.90;999.90;;;;;;;-144.65;100.00;64500.88;5091379;28;20032;-76
2022/09/03 00:25:36;;;;;;;1999.90;999.90;;;;;;;-144.65;100.00;64500.88;5092768;28;20027;-75
2022/09/03 00:28:06;;;;;;;1999.90;999.90;;;;;;;-144.65;100.00;64500.88;5091868;28;20024;-75
2022/09/03 00:30:33;;;;;;;1999.90;999.90;;;;;;;-144.65;100.00;64500.88;5092881;28;20442;-76
2022/09/03 00:33:17;;;;;;;1999.90;999.90;;;;;;;-144.65;100.00;64500.88;5093216;28;20016;-76
2022/09/03 00:35:49;;;;;;;1999.90;999.90;;;;;;;-144.65;100.00;64500.88;5092039;28;20042;-76
2022/09/03 00:38:14;;;;;;;1999.90;999.90;;;;;;;-144.65;100.00;64500.88;5094493;28;20380;-75
2022/09/03 00:40:45;;;;;;;1999.90;999.90;;;;;;;-144.65;100.00;64500.88;5095136;28;20114;-76
2022/09/03 00:43:14;;;;;;;1999.90;999.90;;;;;;;-144.65;100.00;64500.88;5094433;28;20040;-75
2022/09/03 00:45:47;;;;;;;1999.90;999.90;;;;;;;-144.65;100.00;64500.88;5094836;28;20024;-77
2022/09/03 00:48:25;;;;;;;1999.90;999.90;;;;;;;-144.65;100.00;64500.88;5092948;28;20064;-76
2022/09/03 00:50:59;;;;;;;1999.90;999.90;;;;;;;-144.65;100.00;64500.88;5093078;28;20089;-75
2022/09/03 00:53:42;;;;;;;1999.90;999.90;;;;;;;-144.65;100.00;64500.88;5103890;28;20035;-76
2022/09/03 00:56:42;;;;;;;1999.90;999.90;;;;;;;-144.65;100.00;64500.88;5094089;28;20069;-75
2022/09/03 00:59:22;;;;;;;1999.90;999.90;;;;;;;-144.65;100.00;64500.88;5093233;28;20736;-76
2022/09/03 01:01:54;;;;;;;1999.90;999.90;;;;;;;-144.65;100.00;64500.88;5093648;28;20027;-75
2022/09/03 01:04:47;;;;;;;1999.90;999.90;;;;;;;-144.65;100.00;64500.88;5093518;28;20062;-75
2022/09/03 01:07:33;;;;;;;1999.90;999.90;;;;;;;-144.65;100.00;64500.88;5093753;28;20507;-76
2022/09/03 01:10:13;;;;;;;1999.90;999.90;;;;;;;-144.65;100.00;64500.88;5103580;28;20027;-76
2022/09/03 01:12:59;;;;;;;1999.90;999.90;;;;;;;-144.65;100.00;64500.88;5115532;28;20055;-76
2022/09/03 01:15:35;;;;;;;1999.90;999.90;;;;;;;-144.65;100.00;64500.88;5114036;28;20149;-75
2022/09/03 01:18:28;;;;;;;1999.90;999.90;;;;;;;-144.65;100.00;64500.88;5115577;28;20059;-75
2022/09/03 01:20:59;;;;;;;1999.90;999.90;;;;;;;-144.65;100.00;64500.88;5114490;28;20023;-76
2022/09/03 01:23:41;;;;;;;1999.90;999.90;;;;;;;-144.65;100.00;64500.88;5114498;28;20080;-75
2022/09/03 01:26:32;;;;;;;1999.90;999.90;;;;;;;-144.65;100.00;64500.88;5119222;28;20507;-76
2022/09/03 01:29:06;;;;;;;1999.90;999.90;;;;;;;-144.65;100.00;64500.88;5122624;28;20106;-76
2022/09/03 01:31:46;;;;;;;1999.90;999.90;;;;;;;-144.65;100.00;64500.88;5122481;28;20387;-77
2022/09/03 01:34:20;;;;;;;1999.90;999.90;;;;;;;-144.65;100.00;64500.88;5122355;27;20479;-77
2022/09/03 01:37:07;;;;;;;1999.90;999.90;;;;;;;-144.65;100.00;64500.88;5121555;28;20027;-77
2022/09/03 01:39:56;;;;;;;1999.90;999.90;;;;;;;-144.65;100.00;64500.88;5121520;28;20392;-76
2022/09/03 01:42:27;;;;;;;1999.90;999.90;;;;;;;-144.65;100.00;64500.88;5118891;28;20028;-77
2022/09/03 01:45:10;;;;;;;1999.90;999.90;;;;;;;-144.65;100.00;64500.88;5122987;28;20032;-77
2022/09/03 01:47:55;;;;;;;1999.90;999.90;;;;;;;-144.65;100.00;64500.88;5103591;28;20024;-77
2022/09/03 01:50:33;;;;;;;1999.90;999.90;;;;;;;-144.65;100.00;64500.88;5102719;28;20091;-77
2022/09/03 01:53:18;;;;;;;1999.90;999.90;;;;;;;-144.65;100.00;64500.88;5102377;28;20028;-77
2022/09/03 01:56:17;;;;;;;1999.90;999.90;;;;;;;-144.65;100.00;64500.88;5101890;28;20028;-76
2022/09/03 01:58:49;;;;;;;1999.90;999.90;;;;;;;-144.65;100.00;64500.88;5119390;28;20035;-77
2022/09/03 02:01:25;;;;;;;1999.90;999.90;;;;;;;-144.65;100.00;64500.88;5118840;28;20097;-76
2022/09/03 02:03:52;;;;;;;1999.90;999.90;;;;;;;-144.65;100.00;64500.88;5114628;28;20028;-76
2022/09/03 02:06:19;;;;;;;1999.90;999.90;;;;;;;-144.65;100.00;64500.88;5113914;28;20107;-75
2022/09/03 02:08:45;;;;;;;1999.90;999.90;;;;;;;-144.65;100.00;64500.88;5114789;28;20114;-77
2022/09/03 02:11:10;;;;;;;1999.90;999.90;;;;;;;-144.65;100.00;64500.88;5120374;28;20484;-77
2022/09/03 02:13:47;;;;;;;1999.90;999.90;;;;;;;-144.65;100.00;64500.88;5119418;28;20027;-77
2022/09/03 02:16:15;;;;;;;1999.90;999.90;;;;;;;-144.65;100.00;64500.88;5123503;28;20023;-76
2022/09/03 02:18:45;;;;;;;1999.90;999.90;;;;;;;-144.65;100.00;64500.88;5112906;28;20479;-77
2022/09/03 02:21:13;;;;;;;1999.90;999.90;;;;;;;-144.65;100.00;64500.88;5112828;28;20035;-76
2022/09/03 02:23:40;;;;;;;1999.90;999.90;;;;;;;-144.65;100.00;64500.88;5112543;28;20100;-76
2022/09/03 02:26:08;;;;;;;1999.90;999.90;;;;;;;-144.65;100.00;64500.88;5112116;28;20038;-76
2022/09/03 02:28:34;;;;;;;1999.90;999.90;;;;;;;-144.65;100.00;64500.88;5115981;28;20543;-77
2022/09/03 02:30:59;;;;;;;1999.90;999.90;;;;;;;-144.65;100.00;64500.88;5112714;28;20050;-76
2022/09/03 02:33:26;;;;;;;1999.90;999.90;;;;;;;-144.65;100.00;64500.88;5117846;28;20027;-77
2022/09/03 02:35:52;;;;;;;1999.90;999.90;;;;;;;-144.65;100.00;64500.88;5112708;28;20032;-76
2022/09/03 02:38:27;;;;;;;1999.90;999.90;;;;;;;-144.65;100.00;64500.88;5112526;28;20515;-76
2022/09/03 02:40:53;;;;;;;1999.90;999.90;;;;;;;-144.65;100.00;64500.88;5114636;28;20048;-76
2022/09/03 02:44:00;;;;;;;1999.90;999.90;;;;;;;-144.65;100.00;64500.88;5117292;28;20048;-76
2022/09/03 02:46:36;;;;;;;1999.90;999.90;;;;;;;-144.65;100.00;64500.88;5108321;28;20040;-76
2022/09/03 02:49:01;;;;;;;1999.90;999.90;;;;;;;-144.65;100.00;64500.88;5119322;28;20024;-76
2022/09/03 02:51:31;;;;;;;1999.90;999.90;;;;;;;-144.65;100.00;64500.88;5118295;28;20051;-76
2022/09/03 02:53:56;;;;;;;1999.90;999.90;;;;;;;-144.65;100.00;64500.88;5120685;28;20023;-77
2022/09/03 02:56:24;;;;;;;1999.90;999.90;;;;;;;-144.65;100.00;64500.88;5124508;28;20028;-75
2022/09/03 02:58:50;;;;;;;1999.90;999.90;;;;;;;-144.65;100.00;64500.88;5117283;28;20055;-75
2022/09/03 03:01:15;;;;;;;1999.90;999.90;;;;;;;-144.65;100.00;64500.88;5123350;28;20031;-77
2022/09/03 03:03:40;;;;;;;1999.90;999.90;;;;;;;-144.65;100.00;64500.88;5122991;28;20047;-76
2022/09/03 03:06:06;;;;;;;1999.90;999.90;;;;;;;-144.65;100.00;64500.88;5117689;28;20452;-76
2022/09/03 03:08:33;;;;;;;1999.90;999.90;;;;;;;-144.65;100.00;64500.88;5116184;28;20030;-76
2022/09/03 03:10:58;;;;;;;1999.90;999.90;;;;;;;-144.65;100.00;64500.88;5116008;28;20030;-76
2022/09/03 03:13:28;;;;;;;1999.90;999.90;;;;;;;-144.65;100.00;64500.88;5115860;28;20460;-76
2022/09/03 03:15:59;;;;;;;1999.90;999.90;;;;;;;-144.65;100.00;64500.88;5116244;28;20032;-76
2022/09/03 03:18:24;;;;;;;1999.90;999.90;;;;;;;-144.65;100.00;64500.88;5115781;28;20031;-76
2022/09/03 03:20:50;;;;;;;1999.90;999.90;;;;;;;-144.65;100.00;64500.88;5116154;28;20487;-76
2022/09/03 03:23:15;;;;;;;1999.90;999.90;;;;;;;-144.65;100.00;64500.88;5114486;28;20066;-76
2022/09/03 03:25:41;;;;;;;1999.90;999.90;;;;;;;-144.65;100.00;64500.88;5116497;28;20379;-76
2022/09/03 03:28:07;;;;;;;1999.90;999.90;;;;;;;-144.65;100.00;64500.88;5115656;28;20024;-76
2022/09/03 03:30:37;;;;;;;1999.90;999.90;;;;;;;-144.65;100.00;64500.88;5115639;28;20024;-76
2022/09/03 03:33:03;;;;;;;1999.90;999.90;;;;;;;-144.65;100.00;64500.88;5115178;28;20051;-76
2022/09/03 03:35:29;;;;;;;1999.90;999.90;;;;;;;-144.65;100.00;64500.88;5114948;28;20067;-76
2022/09/03 03:37:56;;;;;;;1999.90;999.90;;;;;;;-144.65;100.00;64500.88;5115173;28;20072;-76
2022/09/03 03:40:22;;;;;;;1999.90;999.90;;;;;;;-144.65;100.00;64500.88;5115040;28;20468;-76
2022/09/03 03:42:48;;;;;;;1999.90;999.90;;;;;;;-144.65;100.00;64500.88;5114980;28;20050;-76
2022/09/03 03:45:14;;;;;;;1999.90;999.90;;;;;;;-144.65;100.00;64500.88;5115135;28;20024;-77
2022/09/03 03:47:39;;;;;;;1999.90;999.90;;;;;;;-144.65;100.00;64500.88;5115195;28;20529;-76
2022/09/03 03:50:05;;;;;;;1999.90;999.90;;;;;;;-144.65;100.00;64500.88;5114655;28;20027;-75
2022/09/03 03:52:30;;;;;;;1999.90;999.90;;;;;;;-144.65;100.00;64500.88;5115092;28;20110;-76
2022/09/03 03:54:56;;;;;;;1999.90;999.90;;;;;;;-144.65;100.00;64500.88;5114709;28;20047;-76
2022/09/03 03:57:22;;;;;;;1999.90;999.90;;;;;;;-144.65;100.00;64500.88;5115178;28;20040;-77
2022/09/03 03:59:48;;;;;;;1999.90;999.90;;;;;;;-144.65;100.00;64500.88;5115539;28;20031;-77
2022/09/03 04:02:14;;;;;;;1999.90;999.90;;;;;;;-144.65;100.00;64500.88;5114828;28;20112;-76
2022/09/03 04:04:39;;;;;;;1999.90;999.90;;;;;;;-144.65;100.00;64500.88;5114953;28;20467;-77
2022/09/03 04:07:05;;;;;;;1999.90;999.90;;;;;;;-144.65;100.00;64500.88;5115119;28;20035;-76
2022/09/03 04:09:30;;;;;;;1999.90;999.90;;;;;;;-144.65;100.00;64500.88;5114788;28;20054;-76
2022/09/03 04:11:56;;;;;;;1999.90;999.90;;;;;;;-144.65;100.00;64500.88;5114980;28;20479;-76
2022/09/03 04:14:23;;;;;;;1999.90;999.90;;;;;;;-144.65;100.00;64500.88;5115205;28;20384;-76
2022/09/03 04:16:49;;;;;;;1999.90;999.90;;;;;;;-144.65;100.00;64500.88;5114841;28;20445;-76
2022/09/03 04:19:15;;;;;;;1999.90;999.90;;;;;;;-144.65;100.00;64500.88;5114822;27;20472;-76
2022/09/03 04:21:41;;;;;;;1999.90;999.90;;;;;;;-144.65;100.00;64500.88;5115068;28;20030;-76
2022/09/03 04:24:06;;;;;;;1999.90;999.90;;;;;;;-144.65;100.00;64500.88;5115662;28;20424;-75
2022/09/03 04:26:32;;;;;;;1999.90;999.90;;;;;;;-144.65;100.00;64500.88;5114284;28;20031;-76
2022/09/03 04:29:03;;;;;;;1999.90;999.90;;;;;;;-144.65;100.00;64500.88;5116712;28;20046;-76
2022/09/03 04:31:29;;;;;;;1999.90;999.90;;;;;;;-144.65;100.00;64500.88;5117979;28;20112;-76
2022/09/03 04:33:55;;;;;;;1999.90;999.90;;;;;;;-144.65;100.00;64500.88;5122115;28;20047;-76
2022/09/03 04:36:23;;;;;;;1999.90;999.90;;;;;;;-144.65;100.00;64500.88;5115730;28;20031;-75
2022/09/03 04:38:52;;;;;;;1999.90;999.90;;;;;;;-144.65;100.00;64500.88;5113564;28;20027;-77
2022/09/03 04:41:21;;;;;;;1999.90;999.90;;;;;;;-144.65;100.00;64500.88;5113781;28;20472;-77
2022/09/03 04:43:47;;;;;;;1999.90;999.90;;;;;;;-144.65;100.00;64500.88;5113789;27;20036;-76
2022/09/03 04:46:13;;;;;;;1999.90;999.90;;;;;;;-144.65;100.00;64500.88;5117492;28;20030;-76
2022/09/03 04:48:39;;;;;;;1999.90;999.90;;;;;;;-144.65;100.00;64500.88;5124313;28;20027;-75
2022/09/03 04:51:13;;;;;;;1999.90;999.90;;;;;;;-144.65;100.00;64500.88;5112474;28;20032;-76
2022/09/03 04:53:41;;;;;;;1999.90;999.90;;;;;;;-144.65;100.00;64500.88;5112102;28;20080;-75
2022/09/03 04:56:13;;;;;;;1999.90;999.90;;;;;;;-144.65;100.00;64500.88;5111781;28;20024;-74
2022/09/03 04:58:40;;;;;;;1999.90;999.90;;;;;;;-144.65;100.00;64500.88;5111860;28;20399;-75
2022/09/03 05:01:10;;;;;;;1999.90;999.90;;;;;;;-144.65;100.00;64500.88;5112122;28;20480;-74
2022/09/03 05:03:36;;;;;;;1999.90;999.90;;;;;;;-144.65;100.00;64500.88;5111883;28;20047;-74
2022/09/03 05:06:02;;;;;;;1999.90;999.90;;;;;;;-144.65;100.00;64500.88;5111836;28;20501;-74
2022/09/03 05:08:27;;;;;;;1999.90;999.90;;;;;;;-144.65;100.00;64500.88;5111802;28;20027;-74
2022/09/03 05:10:59;;;;;;;1999.90;999.90;;;;;;;-144.65;100.00;64500.88;5111387;28;20020;-74
2022/09/03 05:13:25;;;;;;;1999.90;999.90;;;;;;;-144.65;100.00;64500.88;5111279;28;20024;-75
2022/09/03 05:15:50;;;;;;;1999.90;999.90;;;;;;;-144.65;100.00;64500.88;5112404;28;20152;-75
2022/09/03 05:18:16;;;;;;;1999.90;999.90;;;;;;;-144.65;100.00;64500.88;5111877;28;20480;-75
2022/09/03 05:20:42;;;;;;;1999.90;999.90;;;;;;;-144.65;100.00;64500.88;5110451;28;20034;-75
2022/09/03 05:23:07;;;;;;;1999.90;999.90;;;;;;;-144.65;100.00;64500.88;5115037;28;20063;-77
2022/09/03 05:25:32;;;;;;;1999.90;999.90;;;;;;;-144.65;100.00;64500.88;5115000;28;20024;-76
2022/09/03 05:27:58;;;;;;;1999.90;999.90;;;;;;;-144.65;100.00;64500.88;5116071;28;20030;-76
2022/09/03 05:30:25;;;;;;;1999.90;999.90;;;;;;;-144.65;100.00;64500.88;5116145;28;20449;-77
2022/09/03 05:32:53;;;;;;;1999.90;999.90;;;;;;;-144.65;100.00;64500.88;5105520;28;20028;-77
2022/09/03 05:35:18;;;;;;;1999.90;999.90;;;;;;;-144.65;100.00;64500.88;5103923;28;20059;-73
2022/09/03 05:37:44;;;;;;;1999.90;999.90;;;;;;;-144.65;100.00;64500.88;5099351;28;20106;-71
2022/09/03 05:40:10;;;;;;;1999.90;999.90;;;;;;;-144.65;100.00;64500.88;5102689;28;20081;-71
2022/09/03 05:42:39;;;;;;;1999.90;999.90;;;;;;;-144.65;100.00;64500.88;5102756;28;20673;-71
2022/09/03 05:45:11;;;;;;;1999.90;999.90;;;;;;;-144.65;100.00;64500.88;5092768;28;20039;-72
2022/09/03 05:47:40;;;;;;;1999.90;999.90;;;;;;;-144.65;100.00;64500.88;5098684;28;20545;-72
2022/09/03 05:50:09;;;;;;;1999.90;999.90;;;;;;;-144.65;100.00;64500.88;5099189;28;20419;-72
2022/09/03 05:52:35;;;;;;;1999.90;999.90;;;;;;;-144.65;100.00;64500.88;5103393;28;20031;-74
2022/09/03 05:55:01;;;;;;;1999.90;999.90;;;;;;;-144.65;100.00;64500.88;5114205;28;20114;-75
2022/09/03 05:57:26;;;;;;;1999.90;999.90;;;;;;;-144.65;100.00;64500.88;5115914;28;20047;-74
2022/09/03 05:59:52;;;;;;;1999.90;999.90;;;;;;;-144.65;100.00;64500.88;5111565;28;20035;-74
2022/09/03 06:02:18;;;;;;;1999.90;999.90;;;;;;;-144.65;100.00;64500.88;5109629;28;20035;-74
2022/09/03 06:04:43;;;;;;;1999.90;999.90;;;;;;;-144.65;100.00;64500.88;5111258;28;20114;-75
2022/09/03 06:07:09;;;;;;;1999.90;999.90;;;;;;;-144.65;100.00;64500.88;5114657;28;20055;-74
2022/09/03 06:09:34;;;;;;;1999.90;999.90;;;;;;;-144.65;100.00;64500.88;5115988;28;20050;-75
2022/09/03 06:11:59;;;;;;;1999.90;999.90;;;;;;;-144.65;100.00;64500.88;5101306;28;20020;-75
2022/09/03 06:14:25;;;;;;;1999.90;999.90;;;;;;;-144.65;100.00;64500.88;5092742;28;20036;-77
2022/09/03 06:16:51;;;;;;;1999.90;999.90;;;;;;;-144.65;100.00;64500.88;5103610;28;20028;-75
2022/09/03 06:19:17;;;;;;;1999.90;999.90;;;;;;;-144.65;100.00;64500.88;5101893;28;20500;-74
2022/09/03 06:21:44;;;;;;;1999.90;999.90;;;;;;;-144.65;100.00;64500.88;5098576;28;20070;-75
2022/09/03 06:24:12;;;;;;;1999.90;999.90;;;;;;;-144.65;100.00;64500.88;5100623;28;20016;-75
2022/09/03 06:26:38;;;;;;;1999.90;999.90;;;;;;;-144.65;100.00;64500.88;5102978;28;20027;-75
2022/09/03 06:29:04;;;;;;;1999.90;999.90;;;;;;;-144.65;100.00;64500.88;5103763;28;20449;-74
2022/09/03 06:31:29;;;;;;;1999.90;999.90;;;;;;;-144.65;100.00;64500.88;5102265;28;20024;-74
2022/09/03 06:33:55;;;;;;;1999.90;999.90;;;;;;;-144.65;100.00;64500.88;5104394;28;20076;-74
2022/09/03 06:36:21;;;;;;;1999.90;999.90;;;;;;;-144.65;100.00;64500.88;5107148;28;20024;-75
2022/09/03 06:38:51;;;;;;;1999.90;999.90;;;;;;;-144.65;100.00;64500.88;5102796;27;20035;-76
2022/09/03 06:41:23;;;;;;;1999.90;999.90;;;;;;;-144.65;100.00;64500.88;5108198;28;20050;-77
2022/09/03 06:43:54;;;;;;;1999.90;999.90;;;;;;;-144.65;100.00;64500.88;5104804;28;20138;-78
2022/09/03 06:46:22;;;;;;;1999.90;999.90;;;;;;;-144.65;100.00;64500.88;5109034;28;20023;-77
2022/09/03 06:48:47;;;;;;;1999.90;999.90;;;;;;;-144.65;100.00;64500.88;5108696;28;20103;-77
2022/09/03 06:51:16;;;;;;;1999.90;999.90;;;;;;;-144.65;100.00;64500.88;5103310;28;20110;-77
2022/09/03 06:53:46;;;;;;;1999.90;999.90;;;;;;;-144.65;100.00;64500.88;5108734;28;20028;-76
2022/09/03 06:56:14;;;;;;;1999.90;999.90;;;;;;;-144.65;100.00;64500.88;5105531;28;20472;-79
2022/09/03 06:58:44;;;;;;;1999.90;999.90;;;;;;;-144.65;100.00;64500.88;5101869;28;20024;-76
2022/09/03 07:01:10;;;;;;;1999.90;999.90;;;;;;;-144.65;100.00;64500.88;5101225;28;20034;-76
2022/09/03 07:03:36;;;;;;;1999.90;999.90;;;;;;;-144.65;100.00;64500.88;5099454;28;20154;-75
2022/09/03 07:06:04;;;;;;;1999.90;999.90;;;;;;;-144.65;100.00;64500.88;5103250;28;20424;-75
2022/09/03 07:08:31;;;;;;;1999.90;999.90;;;;;;;-144.65;100.00;64500.88;5101719;28;20043;-76
2022/09/03 07:11:08;;;;;;;1999.90;999.90;;;;;;;-144.65;100.00;64500.88;5105180;28;20107;-75
2022/09/03 07:13:42;;;;;;;1999.90;999.90;;;;;;;-144.65;100.00;64500.88;5102319;28;20024;-75
2022/09/03 07:16:10;;;;;;;1999.90;999.90;;;;;;;-144.65;100.00;64500.88;5105485;28;20054;-75
2022/09/03 07:18:36;;;;;;;1999.90;999.90;;;;;;;-144.65;100.00;64500.88;5106599;28;20055;-76
2022/09/03 07:21:07;;;;;;;1999.90;999.90;;;;;;;-144.65;100.00;64500.88;5110258;28;20058;-74
2022/09/03 07:23:34;;;;;;;1999.90;999.90;;;;;;;-144.65;100.00;64500.88;5107326;28;20101;-76
2022/09/03 07:26:01;;;;;;;1999.90;999.90;;;;;;;-144.65;100.00;64500.88;5094098;28;20396;-76
2022/09/03 07:28:29;;;;;;;1999.90;999.90;;;;;;;-144.65;100.00;64500.88;5093266;28;20123;-75
2022/09/03 07:31:04;;;;;;;1999.90;999.90;;;;;;;-144.65;100.00;64500.88;5093411;28;20032;-76
2022/09/03 07:33:30;;;;;;;1999.90;999.90;;;;;;;-144.65;100.00;64500.88;5093551;28;20020;-76
2022/09/03 07:36:05;;;;;;;1999.90;999.90;;;;;;;-144.65;100.00;64500.88;5100405;28;20088;-75
2022/09/03 07:38:32;;;;;;;1999.90;999.90;;;;;;;-144.65;100.00;64500.88;5093264;28;20502;-75
2022/09/03 07:40:58;;;;;;;1999.90;999.90;;;;;;;-144.65;100.00;64500.88;5092604;28;20024;-75
2022/09/03 07:43:26;;;;;;;1999.90;999.90;;;;;;;-144.65;100.00;64500.88;5098033;28;20492;-74
2022/09/03 07:45:54;;;;;;;1999.90;999.90;;;;;;;-144.65;100.00;64500.88;5101357;28;20118;-75
2022/09/03 07:48:19;;;;;;;1999.90;999.90;;;;;;;-144.65;100.00;64500.88;5093093;28;20028;-74
2022/09/03 07:50:46;;;;;;;1999.90;999.90;;;;;;;-144.65;100.00;64500.88;5092829;28;20073;-74
2022/09/03 07:53:12;;;;;;;1999.90;999.90;;;;;;;-144.65;100.00;64500.88;5105191;28;20031;-74
2022/09/03 07:55:37;;;;;;;1999.90;999.90;;;;;;;-144.65;100.00;64500.88;5112886;28;20450;-75
2022/09/03 07:58:02;;;;;;;1999.90;999.90;;;;;;;-144.65;100.00;64500.88;5111514;28;20388;-76
2022/09/03 08:00:28;;;;;;;1999.90;999.90;;;;;;;-144.65;100.00;64500.88;5113316;28;20464;-74
2022/09/03 08:02:53;;;;;;;1999.90;999.90;;;;;;;-144.65;100.00;64500.88;5114216;28;20034;-72
2022/09/03 08:05:20;;;;;;;1999.90;999.90;;;;;;;-144.65;100.00;64500.88;5117806;28;20031;-77
2022/09/03 08:07:45;;;;;;;1999.90;999.90;;;;;;;-144.65;100.00;64500.88;5115997;28;20076;-71
2022/09/03 08:10:12;;;;;;;1999.90;999.90;;;;;;;-144.65;100.00;64500.88;5112612;27;20027;-72
2022/09/03 08:12:37;;;;;;;1999.90;999.90;;;;;;;-144.65;100.00;64500.88;5087573;28;20046;-88
2022/09/03 08:15:04;;;;;;;1999.90;999.90;;;;;;;-144.65;100.00;64500.88;5105667;28;20031;-73
2022/09/03 08:17:29;;;;;;;1999.90;999.90;;;;;;;-144.65;100.00;64500.88;5111135;28;20111;-73
2022/09/03 08:19:56;;;;;;;1999.90;999.90;;;;;;;-144.65;100.00;64500.88;5111376;28;20165;-74
2022/09/03 08:22:21;;;;;;;1999.90;999.90;;;;;;;-144.65;100.00;64500.88;5110165;28;20019;-73
2022/09/03 08:24:47;;;;;;;1999.90;999.90;;;;;;;-144.65;100.00;64500.88;5110024;28;20050;-74
2022/09/03 08:27:12;;;;;;;1999.90;999.90;;;;;;;-144.65;100.00;64500.88;5100910;28;20030;-81
2022/09/03 08:29:38;;;;;;;1999.90;999.90;;;;;;;-144.65;100.00;64500.88;5116229;28;20046;-79
2022/09/03 08:32:03;;;;;;;1999.90;999.90;;;;;;;-144.65;100.00;64500.88;5115467;28;20043;-75
2022/09/03 08:34:29;;;;;;;1999.90;999.90;;;;;;;-144.65;100.00;64500.88;5115503;28;20076;-75
2022/09/03 08:36:54;;;;;;;1999.90;999.90;;;;;;;-144.65;100.00;64500.88;5116001;28;20551;-82
2022/09/03 08:39:19;;;;;;;1999.90;999.90;;;;;;;-144.65;100.00;64500.88;5115842;28;20400;-80
2022/09/03 08:42:03;;;;;;;1999.90;999.90;;;;;;;-144.65;100.00;64500.88;5115527;28;20069;-82
2022/09/03 08:44:46;;;;;;;1999.90;999.90;;;;;;;-144.65;100.00;64500.88;5115888;28;20549;-78
2022/09/03 08:47:17;;;;;;;1999.90;999.90;;;;;;;-144.65;100.00;64500.88;5109851;27;20541;-77
2022/09/03 08:50:21;;;;;;;1999.90;999.90;;;;;;;-144.65;100.00;64500.88;5108966;28;20028;-76
2022/09/03 08:52:48;;;;;;;1999.90;999.90;;;;;;;-144.65;100.00;64500.88;5111812;28;20088;-77
2022/09/03 08:55:43;;;;;;;1999.90;999.90;;;;;;;-144.65;100.00;64500.88;5113496;27;20028;-81
2022/09/03 08:58:17;;;;;;;1999.90;999.90;;;;;;;-144.65;100.00;64500.88;5122277;28;20027;-76
2022/09/03 09:01:11;;;;;;;1999.90;999.90;;;;;;;-144.65;100.00;64500.88;5111792;28;20047;-78
2022/09/03 09:03:55;;;;;;;1999.90;999.90;;;;;;;-144.65;100.00;64500.88;5111628;28;20080;-79
2022/09/03 09:06:37;;;;;;;1999.90;999.90;;;;;;;-144.65;100.00;64500.88;5110976;28;20020;-76
2022/09/03 09:09:21;;;;;;;1999.90;999.90;;;;;;;-144.65;100.00;64500.88;5111092;28;20047;-77
2022/09/03 09:12:05;;;;;;;1999.90;999.90;;;;;;;-144.65;100.00;64500.88;5101005;28;20063;-77
2022/09/03 09:14:52;;;;;;;1999.90;999.90;;;;;;;-144.65;100.00;64500.88;5093618;28;20024;-85
2022/09/03 09:17:26;;;;;;;1999.90;999.90;;;;;;;-144.65;100.00;64500.88;5092695;28;20035;-75
2022/09/03 09:20:30;;;;;;;1999.90;999.90;;;;;;;-144.65;100.00;64500.88;5091991;28;20032;-77
2022/09/03 09:22:59;;;;;;;1999.90;999.90;;;;;;;-144.65;100.00;64500.88;5070463;28;20133;-76
2022/09/03 09:25:25;;;;;;;1999.90;999.90;;;;;;;-144.65;100.00;64500.88;5105326;28;20061;-75
2022/09/03 09:27:59;;;;;;;1999.90;999.90;;;;;;;-144.65;100.00;64500.88;5107983;28;20108;-79
2022/09/03 09:30:24;;;;;;;1999.90;999.90;;;;;;;-144.65;100.00;64500.88;5108069;28;20066;-75
2022/09/03 09:32:50;;;;;;;1999.90;999.90;;;;;;;-144.65;100.00;64500.88;5110129;28;20428;-76
2022/09/03 09:35:17;;;;;;;1999.90;999.90;;;;;;;-144.65;100.00;64500.88;5107277;28;20383;-77
2022/09/03 09:37:51;;;;;;;1999.90;999.90;;;;;;;-144.65;100.00;64500.88;5110031;28;20148;-75
2022/09/03 09:40:34;;;;;;;1999.90;999.90;;;;;;;-144.65;100.00;64500.88;5107603;28;20019;-76
2022/09/03 09:43:12;;;;;;;1999.90;999.90;;;;;;;-144.65;100.00;64500.88;5107116;28;20051;-74
2022/09/03 09:45:39;;;;;;;1999.90;999.90;;;;;;;-144.65;100.00;64500.88;5106763;28;20763;-76
2022/09/03 09:48:21;;;;;;;1999.90;999.90;;;;;;;-144.65;100.00;64500.88;5109340;28;20047;-76
2022/09/03 09:50:47;;;;;;;1999.90;999.90;;;;;;;-144.65;100.00;64500.88;5108317;28;20031;-75
2022/09/03 09:53:16;;;;;;;1999.90;999.90;;;;;;;-144.65;100.00;64500.88;5109180;28;20014;-74
2022/09/03 09:55:56;;;;;;;1999.90;999.90;;;;;;;-144.65;100.00;64500.88;5109473;28;20016;-75
2022/09/03 09:58:24;;;;;;;1999.90;999.90;;;;;;;-144.65;100.00;64500.88;5096605;28;20019;-73
2022/09/03 10:01:13;;;;;;;1999.90;999.90;;;;;;;-144.65;100.00;64500.88;5108325;28;20085;-76
2022/09/03 10:03:53;;;;;;;1999.90;999.90;;;;;;;-144.65;100.00;64500.88;5107171;28;20119;-76
2022/09/03 10:09:14;;;;;;;1999.90;999.90;;;;;;;-144.65;100.00;64500.88;5107541;28;20415;-75
2022/09/03 10:11:52;;;;;;;1999.90;999.90;;;;;;;-144.65;100.00;64500.88;5111170;28;20015;-75
2022/09/03 10:14:34;;;;;;;1999.90;999.90;;;;;;;-144.65;100.00;64500.88;5110694;28;20531;-74
2022/09/03 10:17:09;;;;;;;1999.90;999.90;;;;;;;-144.65;100.00;64500.88;5109372;28;20108;-75
2022/09/03 10:22:53;;;;;;;1999.90;999.90;;;;;;;-144.65;100.00;64500.88;5109369;28;20039;-75
2022/09/03 10:25:21;;;;;;;1999.90;999.90;;;;;;;-144.65;100.00;64500.88;5110630;28;20027;-74
2022/09/03 10:27:46;;;;;;;1999.90;999.90;;;;;;;-144.65;100.00;64500.88;5110008;28;20069;-74
2022/09/03 10:30:14;;;;;;;1999.90;999.90;;;;;;;-144.65;100.00;64500.88;5112942;28;20019;-76
2022/09/03 10:33:10;;;;;;;1999.90;999.90;;;;;;;-144.65;100.00;64500.88;5112861;28;20062;-74
2022/09/03 10:35:51;;;;;;;1999.90;999.90;;;;;;;-144.65;100.00;64500.88;5102755;28;20114;-74
2022/09/03 10:38:22;;;;;;;1999.90;999.90;;;;;;;-144.65;100.00;64500.88;5107618;28;20039;-75
2022/09/03 10:41:30;;;;;;;1999.90;999.90;;;;;;;-144.65;100.00;64500.88;5112809;28;20035;-74
2022/09/03 10:44:09;;;;;;;1999.90;999.90;;;;;;;-144.65;100.00;64500.88;5109657;28;20483;-76
2022/09/03 10:47:08;;;;;;;1999.90;999.90;;;;;;;-144.65;100.00;64500.88;5112267;28;20030;-73
2022/09/03 10:49:58;;;;;;;1999.90;999.90;;;;;;;-144.65;100.00;64500.88;5079258;28;20035;-76
2022/09/03 10:52:49;;;;;;;1999.90;999.90;;;;;;;-144.65;100.00;64500.88;5112498;28;20088;-76
2022/09/03 10:55:39;;;;;;;1999.90;999.90;;;;;;;-144.65;100.00;64500.88;5098210;28;20409;-74
2022/09/03 10:58:39;;;;;;;1999.90;999.90;;;;;;;-144.65;100.00;64500.88;5108339;28;20028;-75